createdAt,value
2019-02-12T00:00:52.009Z,98.25
2019-02-12T00:01:51.932Z,98.34
2019-02-12T00:02:51.845Z,98.25
2019-02-12T00:03:51.760Z,97.77
2019-02-12T00:04:51.677Z,97.11
2019-02-12T00:05:51.593Z,96.54
2019-02-12T00:06:51.509Z,97.02
2019-02-12T00:07:51.426Z,96.54
2019-02-12T00:08:51.342Z,96.73
2019-02-12T00:09:51.259Z,96.35
2019-02-12T00:10:51.221Z,95.59
2019-02-12T00:11:51.090Z,96.02
2019-02-12T00:12:51.011Z,95.55
2019-02-12T00:13:50.923Z,95.59
2019-02-12T00:14:50.845Z,95.78
2019-02-12T00:15:50.757Z,95.55
2019-02-12T00:16:50.676Z,95.12
2019-02-12T00:17:50.589Z,94.70
2019-02-12T00:18:50.512Z,94.13
2019-02-12T00:19:50.428Z,94.37
2019-02-12T00:20:50.344Z,94.70
2019-02-12T00:21:50.257Z,94.65
2019-02-12T00:22:50.173Z,94.84
2019-02-12T00:23:50.090Z,95.69
2019-02-12T00:24:50.020Z,95.59
2019-02-12T00:25:49.923Z,95.07
2019-02-12T00:26:49.841Z,94.89
2019-02-12T00:27:49.760Z,95.64
2019-02-12T00:28:49.670Z,95.74
2019-02-12T00:29:49.600Z,95.69
2019-02-12T00:30:49.527Z,95.31
2019-02-12T00:31:49.422Z,95.55
2019-02-12T00:32:49.338Z,95.69
2019-02-12T00:33:49.263Z,95.64
2019-02-12T00:34:49.172Z,94.79
2019-02-12T00:35:49.091Z,94.79
2019-02-12T00:36:49.017Z,94.70
2019-02-12T00:37:48.922Z,94.04
2019-02-12T00:38:48.838Z,94.46
2019-02-12T00:39:48.749Z,94.13
2019-02-12T00:40:48.668Z,94.04
2019-02-12T00:41:48.588Z,94.13
2019-02-12T00:42:48.500Z,94.42
2019-02-12T00:43:48.422Z,94.46
2019-02-12T00:44:48.334Z,94.42
2019-02-12T00:45:48.258Z,95.07
2019-02-12T00:46:48.171Z,94.42
2019-02-12T00:47:48.087Z,94.51
2019-02-12T00:48:48.004Z,94.13
2019-02-12T00:49:47.915Z,94.13
2019-02-12T00:50:47.836Z,94.13
2019-02-12T00:51:47.753Z,93.75
2019-02-12T00:52:47.673Z,92.43
2019-02-12T00:53:47.589Z,92.14
2019-02-12T00:54:47.506Z,91.29
2019-02-12T00:55:47.435Z,90.53
2019-02-12T00:56:47.337Z,89.30
2019-02-12T00:57:47.251Z,88.45
2019-02-12T00:58:47.175Z,88.73
2019-02-12T00:59:47.082Z,88.07
2019-02-12T01:00:47.009Z,87.88
2019-02-12T01:01:46.921Z,87.21
2019-02-12T01:02:46.854Z,87.12
2019-02-12T01:03:46.751Z,87.78
2019-02-12T01:04:46.669Z,87.88
2019-02-12T01:05:46.585Z,87.98
2019-02-12T01:06:46.504Z,88.35
2019-02-12T01:07:46.415Z,88.64
2019-02-12T01:08:46.335Z,88.54
2019-02-12T01:09:46.260Z,88.64
2019-02-12T01:10:46.167Z,88.54
2019-02-12T01:11:46.079Z,88.54
2019-02-12T01:12:46.009Z,88.54
2019-02-12T01:13:45.918Z,88.64
2019-02-12T01:14:45.835Z,88.64
2019-02-12T01:15:45.753Z,88.35
2019-02-12T01:16:45.666Z,88.45
2019-02-12T01:17:45.581Z,88.45
2019-02-12T01:18:45.502Z,88.35
2019-02-12T01:19:45.414Z,88.07
2019-02-12T01:20:45.333Z,88.17
2019-02-12T01:21:45.256Z,88.35
2019-02-12T01:22:45.162Z,88.45
2019-02-12T01:23:45.097Z,88.54
2019-02-12T01:24:45.000Z,88.35
2019-02-12T01:25:44.916Z,87.98
2019-02-12T01:26:44.837Z,88.73
2019-02-12T01:27:44.752Z,87.98
2019-02-12T01:28:44.684Z,87.98
2019-02-12T01:29:44.585Z,87.88
2019-02-12T01:30:44.500Z,88.07
2019-02-12T01:31:44.424Z,87.98
2019-02-12T01:32:44.334Z,88.35
2019-02-12T01:33:44.253Z,87.78
2019-02-12T01:34:44.161Z,88.64
2019-02-12T01:35:44.087Z,88.07
2019-02-12T01:36:44.002Z,88.07
2019-02-12T01:37:43.919Z,88.73
2019-02-12T01:38:43.832Z,89.11
2019-02-12T01:39:43.749Z,89.58
2019-02-12T01:40:43.669Z,89.58
2019-02-12T01:41:43.586Z,89.20
2019-02-12T01:42:43.497Z,89.68
2019-02-12T01:43:43.415Z,89.58
2019-02-12T01:44:43.333Z,89.30
2019-02-12T01:45:43.250Z,89.49
2019-02-12T01:46:43.177Z,89.39
2019-02-12T01:47:43.083Z,89.49
2019-02-12T01:48:42.997Z,89.39
2019-02-12T01:49:42.917Z,89.77
2019-02-12T01:50:42.845Z,89.96
2019-02-12T01:51:42.746Z,90.25
2019-02-12T01:52:42.669Z,90.06
2019-02-12T01:53:42.596Z,89.96
2019-02-12T01:54:42.502Z,90.25
2019-02-12T01:55:42.418Z,90.25
2019-02-12T01:56:42.335Z,90.34
2019-02-12T01:57:42.251Z,90.63
2019-02-12T01:58:42.174Z,91.00
2019-02-12T01:59:42.095Z,90.53
2019-02-12T02:00:42.019Z,90.58
2019-02-12T02:01:41.918Z,91.10
2019-02-12T02:02:41.833Z,91.48
2019-02-12T02:03:41.754Z,91.86
2019-02-12T02:04:41.672Z,91.86
2019-02-12T02:05:41.583Z,91.43
2019-02-12T02:06:41.499Z,91.67
2019-02-12T02:07:41.415Z,91.67
2019-02-12T02:08:41.333Z,92.33
2019-02-12T02:09:41.252Z,92.00
2019-02-12T02:10:41.178Z,91.86
2019-02-12T02:11:41.084Z,91.67
2019-02-12T02:12:41.024Z,92.10
2019-02-12T02:13:40.920Z,92.33
2019-02-12T02:14:40.836Z,91.81
2019-02-12T02:15:40.795Z,92.24
2019-02-12T02:16:40.671Z,92.19
2019-02-12T02:17:40.589Z,92.24
2019-02-12T02:18:40.511Z,92.00
2019-02-12T02:19:40.417Z,92.66
2019-02-12T02:20:40.336Z,92.43
2019-02-12T02:21:44.160Z,92.99
2019-02-12T02:22:40.169Z,92.99
2019-02-12T02:23:40.087Z,93.61
2019-02-12T02:24:40.011Z,93.42
2019-02-12T02:25:39.924Z,93.32
2019-02-12T02:26:39.843Z,93.42
2019-02-12T02:27:39.752Z,93.42
2019-02-12T02:28:39.672Z,93.46
2019-02-12T02:29:39.589Z,94.23
2019-02-12T02:30:39.501Z,93.99
2019-02-12T02:31:39.423Z,94.42
2019-02-12T02:32:39.342Z,94.60
2019-02-12T02:33:39.256Z,94.46
2019-02-12T02:34:39.169Z,94.89
2019-02-12T02:35:39.091Z,95.64
2019-02-12T02:36:39.004Z,95.50
2019-02-12T02:37:38.932Z,95.88
2019-02-12T02:38:38.860Z,96.45
2019-02-12T02:39:38.755Z,96.35
2019-02-12T02:40:38.673Z,96.40
2019-02-12T02:41:38.593Z,96.64
2019-02-12T02:42:38.506Z,97.35
2019-02-12T02:43:38.424Z,97.06
2019-02-12T02:44:38.346Z,97.35
2019-02-12T02:45:38.269Z,98.20
2019-02-12T02:46:38.170Z,97.92
2019-02-12T02:47:38.093Z,97.39
2019-02-12T02:48:38.012Z,98.06
2019-02-12T02:49:37.927Z,97.68
2019-02-12T02:50:37.840Z,98.15
2019-02-12T02:51:37.760Z,98.49
2019-02-12T02:52:37.680Z,98.01
2019-02-12T02:53:37.601Z,98.49
2019-02-12T02:54:37.516Z,98.96
2019-02-12T02:55:37.423Z,98.01
2019-02-12T02:56:37.335Z,98.77
2019-02-12T02:57:37.254Z,99.15
2019-02-12T02:58:37.173Z,99.24
2019-02-12T02:59:37.092Z,99.48
2019-02-12T03:00:37.004Z,99.19
2019-02-12T03:01:36.922Z,99.33
2019-02-12T03:02:36.842Z,99.01
2019-02-12T03:03:36.755Z,99.05
2019-02-12T03:04:36.669Z,99.05
2019-02-12T03:05:36.596Z,99.19
2019-02-12T03:06:36.512Z,99.24
2019-02-12T03:07:36.421Z,99.24
2019-02-12T03:08:36.338Z,98.77
2019-02-12T03:09:36.253Z,98.20
2019-02-12T03:10:36.178Z,99.62
2019-02-12T03:11:36.091Z,99.99
2019-02-12T03:12:36.002Z,99.99
2019-02-12T03:13:35.924Z,99.19
2019-02-12T03:14:35.843Z,99.05
2019-02-12T03:15:35.755Z,99.29
2019-02-12T03:16:35.671Z,98.96
2019-02-12T03:17:35.596Z,99.24
2019-02-12T03:18:35.507Z,97.96
2019-02-12T03:19:35.424Z,97.92
2019-02-12T03:20:35.337Z,97.92
2019-02-12T03:21:35.258Z,98.11
2019-02-12T03:22:35.190Z,97.49
2019-02-12T03:23:35.090Z,97.92
2019-02-12T03:24:35.006Z,97.68
2019-02-12T03:25:34.925Z,96.83
2019-02-12T03:26:34.836Z,97.30
2019-02-12T03:27:34.756Z,96.83
2019-02-12T03:28:34.672Z,96.64
2019-02-12T03:29:34.591Z,97.16
2019-02-12T03:30:34.508Z,96.69
2019-02-12T03:31:34.424Z,96.35
2019-02-12T03:32:34.343Z,96.69
2019-02-12T03:33:34.258Z,96.69
2019-02-12T03:34:34.171Z,96.16
2019-02-12T03:35:34.099Z,95.97
2019-02-12T03:36:34.005Z,95.88
2019-02-12T03:37:33.922Z,95.55
2019-02-12T03:38:33.839Z,95.97
2019-02-12T03:39:33.758Z,96.16
2019-02-12T03:40:33.674Z,96.12
2019-02-12T03:41:33.617Z,95.78
2019-02-12T03:42:33.509Z,95.97
2019-02-12T03:43:33.421Z,95.59
2019-02-12T03:44:33.342Z,95.50
2019-02-12T03:45:33.262Z,95.36
2019-02-12T03:46:33.169Z,95.50
2019-02-12T03:47:33.089Z,95.45
2019-02-12T03:48:33.002Z,94.89
2019-02-12T03:49:32.922Z,95.12
2019-02-12T03:50:32.830Z,94.84
2019-02-12T03:51:32.757Z,94.27
2019-02-12T03:52:32.675Z,94.42
2019-02-12T03:53:32.596Z,94.27
2019-02-12T03:54:32.504Z,94.46
2019-02-12T03:55:32.421Z,94.37
2019-02-12T03:56:32.340Z,94.08
2019-02-12T03:57:32.253Z,94.08
2019-02-12T03:58:32.170Z,94.18
2019-02-12T03:59:32.086Z,93.32
2019-02-12T04:00:31.999Z,92.85
2019-02-12T04:01:31.923Z,93.32
2019-02-12T04:02:31.836Z,93.23
2019-02-12T04:03:31.754Z,93.04
2019-02-12T04:04:31.665Z,93.80
2019-02-12T04:05:31.593Z,93.51
2019-02-12T04:06:31.500Z,92.85
2019-02-12T04:07:31.418Z,92.61
2019-02-12T04:08:31.340Z,92.29
2019-02-12T04:09:31.252Z,91.81
2019-02-12T04:10:31.183Z,91.62
2019-02-12T04:11:31.083Z,91.81
2019-02-12T04:12:31.002Z,91.91
2019-02-12T04:13:30.918Z,91.53
2019-02-12T04:14:30.836Z,92.29
2019-02-12T04:15:30.851Z,92.10
2019-02-12T04:16:30.676Z,91.72
2019-02-12T04:17:30.694Z,90.86
2019-02-12T04:18:30.501Z,90.67
2019-02-12T04:19:30.419Z,90.39
2019-02-12T04:20:30.331Z,90.01
2019-02-12T04:21:30.251Z,90.01
2019-02-12T04:22:30.163Z,90.20
2019-02-12T04:23:30.080Z,90.77
2019-02-12T04:24:30.000Z,89.73
2019-02-12T04:25:29.916Z,90.01
2019-02-12T04:26:29.831Z,90.11
2019-02-12T04:27:29.753Z,90.39
2019-02-12T04:28:29.666Z,90.39
2019-02-12T04:29:29.593Z,90.11
2019-02-12T04:30:29.500Z,89.92
2019-02-12T04:31:29.414Z,90.11
2019-02-12T04:32:29.333Z,90.20
2019-02-12T04:33:29.247Z,90.11
2019-02-12T04:34:29.159Z,90.30
2019-02-12T04:35:29.076Z,90.58
2019-02-12T04:36:28.995Z,90.67
2019-02-12T04:37:28.913Z,90.58
2019-02-12T04:38:28.829Z,90.67
2019-02-12T04:39:28.745Z,90.86
2019-02-12T04:40:28.661Z,90.77
2019-02-12T04:41:28.581Z,90.77
2019-02-12T04:42:28.496Z,90.48
2019-02-12T04:43:28.410Z,90.58
2019-02-12T04:44:28.334Z,91.15
2019-02-12T04:45:28.245Z,90.86
2019-02-12T04:46:28.161Z,90.67
2019-02-12T04:47:28.077Z,91.05
2019-02-12T04:48:27.996Z,90.67
2019-02-12T04:49:27.911Z,90.58
2019-02-12T04:50:27.824Z,90.67
2019-02-12T04:51:27.747Z,90.77
2019-02-12T04:52:31.996Z,90.58
2019-02-12T04:53:27.574Z,90.86
2019-02-12T04:54:27.492Z,90.77
2019-02-12T04:55:27.409Z,91.15
2019-02-12T04:56:27.328Z,90.96
2019-02-12T04:57:27.242Z,91.05
2019-02-12T04:58:27.157Z,90.67
2019-02-12T04:59:27.074Z,90.48
2019-02-12T05:00:26.996Z,90.11
2019-02-12T05:01:26.908Z,90.30
2019-02-12T05:02:26.825Z,90.39
2019-02-12T05:03:26.739Z,90.48
2019-02-12T05:04:26.654Z,90.30
2019-02-12T05:05:26.574Z,90.11
2019-02-12T05:06:26.488Z,90.11
2019-02-12T05:07:26.421Z,89.82
2019-02-12T05:08:26.322Z,90.01
2019-02-12T05:09:26.239Z,90.11
2019-02-12T05:10:26.155Z,89.44
2019-02-12T05:11:26.074Z,89.25
2019-02-12T05:12:25.992Z,89.44
2019-02-12T05:13:25.901Z,89.44
2019-02-12T05:14:25.827Z,89.25
2019-02-12T05:15:25.745Z,88.49
2019-02-12T05:16:25.683Z,88.87
2019-02-12T05:17:25.570Z,88.78
2019-02-12T05:18:25.489Z,88.87
2019-02-12T05:19:25.404Z,88.87
2019-02-12T05:20:25.321Z,88.87
2019-02-12T05:21:25.237Z,89.06
2019-02-12T05:22:25.152Z,88.49
2019-02-12T05:23:25.070Z,88.31
2019-02-12T05:24:25.013Z,88.02
2019-02-12T05:25:24.902Z,87.84
2019-02-12T05:26:24.815Z,88.31
2019-02-12T05:27:24.740Z,88.31
2019-02-12T05:28:24.658Z,88.49
2019-02-12T05:29:24.568Z,88.31
2019-02-12T05:30:24.479Z,87.74
2019-02-12T05:31:24.405Z,87.55
2019-02-12T05:32:24.324Z,87.55
2019-02-12T05:33:24.237Z,86.98
2019-02-12T05:34:24.151Z,86.89
2019-02-12T05:35:24.116Z,87.27
2019-02-12T05:36:24.002Z,87.74
2019-02-12T05:37:23.901Z,88.21
2019-02-12T05:38:23.817Z,88.21
2019-02-12T05:39:23.734Z,87.55
2019-02-12T05:40:23.648Z,87.46
2019-02-12T05:41:23.579Z,87.08
2019-02-12T05:42:23.482Z,87.36
2019-02-12T05:43:23.408Z,87.36
2019-02-12T05:44:23.328Z,86.89
2019-02-12T05:45:23.229Z,86.98
2019-02-12T05:46:23.144Z,87.08
2019-02-12T05:47:23.062Z,87.08
2019-02-12T05:48:22.980Z,87.27
2019-02-12T05:49:22.903Z,86.79
2019-02-12T05:50:22.811Z,86.70
2019-02-12T05:51:22.724Z,86.98
2019-02-12T05:52:22.649Z,86.79
2019-02-12T05:53:22.565Z,86.60
2019-02-12T05:54:22.480Z,86.51
2019-02-12T05:55:22.394Z,86.60
2019-02-12T05:56:22.315Z,86.70
2019-02-12T05:57:22.229Z,86.70
2019-02-12T05:58:22.141Z,86.70
2019-02-12T05:59:22.066Z,86.79
2019-02-12T06:00:21.978Z,86.70
2019-02-12T06:01:21.900Z,86.51
2019-02-12T06:02:21.805Z,86.51
2019-02-12T06:03:21.728Z,86.60
2019-02-12T06:04:21.658Z,86.89
2019-02-12T06:05:21.561Z,86.60
2019-02-12T06:06:21.615Z,86.51
2019-02-12T06:07:21.413Z,86.41
2019-02-12T06:08:21.326Z,86.79
2019-02-12T06:09:21.227Z,86.89
2019-02-12T06:10:21.146Z,86.60
2019-02-12T06:11:21.058Z,86.79
2019-02-12T06:12:20.976Z,86.70
2019-02-12T06:13:20.885Z,86.51
2019-02-12T06:14:20.894Z,86.41
2019-02-12T06:15:20.750Z,85.66
2019-02-12T06:16:20.659Z,85.66
2019-02-12T06:17:20.560Z,85.57
2019-02-12T06:18:20.484Z,86.04
2019-02-12T06:19:20.396Z,85.47
2019-02-12T06:20:20.308Z,85.94
2019-02-12T06:21:20.238Z,86.41
2019-02-12T06:22:20.141Z,86.60
2019-02-12T06:23:20.065Z,86.32
2019-02-12T06:24:19.968Z,85.57
2019-02-12T06:25:19.887Z,85.66
2019-02-12T06:26:19.801Z,85.75
2019-02-12T06:27:19.723Z,85.19
2019-02-12T06:28:19.633Z,84.81
2019-02-12T06:29:19.556Z,84.05
2019-02-12T06:30:19.471Z,83.58
2019-02-12T06:31:19.385Z,83.29
2019-02-12T06:32:19.303Z,83.58
2019-02-12T06:33:19.219Z,83.58
2019-02-12T06:34:19.137Z,83.58
2019-02-12T06:35:19.049Z,84.42
2019-02-12T06:36:18.967Z,84.23
2019-02-12T06:37:18.900Z,84.71
2019-02-12T06:38:18.798Z,84.81
2019-02-12T06:39:18.719Z,85.85
2019-02-12T06:40:18.641Z,85.57
2019-02-12T06:41:18.598Z,85.85
2019-02-12T06:42:18.470Z,86.32
2019-02-12T06:43:18.384Z,86.51
2019-02-12T06:44:18.306Z,86.70
2019-02-12T06:45:18.227Z,86.51
2019-02-12T06:46:18.136Z,86.79
2019-02-12T06:47:18.052Z,87.17
2019-02-12T06:48:17.971Z,87.93
2019-02-12T06:49:17.883Z,87.08
2019-02-12T06:50:17.815Z,87.08
2019-02-12T06:51:17.717Z,86.89
2019-02-12T06:52:17.632Z,87.27
2019-02-12T06:53:17.550Z,87.08
2019-02-12T06:54:17.466Z,87.36
2019-02-12T06:55:17.379Z,86.98
2019-02-12T06:56:17.295Z,87.46
2019-02-12T06:57:17.223Z,87.93
2019-02-12T06:58:17.132Z,88.59
2019-02-12T06:59:17.042Z,88.12
2019-02-12T07:00:16.968Z,87.93
2019-02-12T07:01:16.878Z,87.65
2019-02-12T07:02:16.799Z,87.55
2019-02-12T07:03:16.711Z,87.74
2019-02-12T07:04:16.634Z,87.27
2019-02-12T07:05:16.548Z,87.93
2019-02-12T07:06:16.465Z,87.65
2019-02-12T07:07:16.381Z,88.12
2019-02-12T07:08:16.299Z,88.49
2019-02-12T07:09:16.214Z,88.40
2019-02-12T07:10:16.123Z,88.49
2019-02-12T07:11:16.046Z,87.84
2019-02-12T07:12:15.961Z,88.31
2019-02-12T07:13:15.876Z,88.59
2019-02-12T07:14:15.790Z,88.31
2019-02-12T07:15:15.712Z,88.49
2019-02-12T07:16:15.630Z,88.40
2019-02-12T07:17:15.538Z,88.68
2019-02-12T07:18:15.467Z,89.06
2019-02-12T07:19:15.390Z,88.78
2019-02-12T07:20:15.292Z,88.59
2019-02-12T07:21:15.209Z,88.78
2019-02-12T07:22:15.125Z,89.16
2019-02-12T07:23:21.237Z,89.06
2019-02-12T07:24:14.959Z,88.49
2019-02-12T07:25:14.874Z,88.21
2019-02-12T07:26:14.788Z,88.68
2019-02-12T07:27:14.704Z,88.59
2019-02-12T07:28:14.623Z,88.68
2019-02-12T07:29:14.542Z,88.40
2019-02-12T07:30:14.456Z,88.49
2019-02-12T07:31:14.398Z,88.87
2019-02-12T07:32:14.288Z,88.78
2019-02-12T07:33:14.206Z,88.68
2019-02-12T07:34:14.116Z,88.40
2019-02-12T07:35:14.042Z,88.59
2019-02-12T07:36:13.960Z,88.40
2019-02-12T07:37:13.882Z,88.78
2019-02-12T07:38:13.787Z,88.21
2019-02-12T07:39:13.700Z,88.49
2019-02-12T07:40:13.626Z,88.68
2019-02-12T07:41:19.912Z,88.31
2019-02-12T07:42:13.450Z,88.49
2019-02-12T07:43:13.370Z,88.68
2019-02-12T07:44:13.279Z,88.68
2019-02-12T07:45:13.202Z,89.06
2019-02-12T07:46:13.119Z,88.87
2019-02-12T07:47:13.031Z,88.02
2019-02-12T07:48:12.950Z,88.21
2019-02-12T07:49:12.865Z,88.40
2019-02-12T07:50:12.798Z,88.49
2019-02-12T07:51:12.696Z,89.06
2019-02-12T07:52:12.625Z,89.44
2019-02-12T07:53:12.529Z,89.16
2019-02-12T07:54:12.446Z,89.49
2019-02-12T07:55:12.363Z,88.97
2019-02-12T07:56:12.284Z,89.06
2019-02-12T07:57:12.199Z,89.44
2019-02-12T07:58:12.114Z,89.30
2019-02-12T07:59:12.035Z,89.54
2019-02-12T08:00:11.953Z,89.25
2019-02-12T08:01:11.864Z,89.39
2019-02-12T08:02:11.780Z,89.11
2019-02-12T08:03:11.698Z,89.49
2019-02-12T08:04:11.615Z,89.49
2019-02-12T08:05:11.528Z,89.68
2019-02-12T08:06:11.444Z,89.25
2019-02-12T08:07:11.365Z,89.54
2019-02-12T08:08:11.273Z,88.82
2019-02-12T08:09:11.190Z,89.25
2019-02-12T08:10:11.127Z,89.11
2019-02-12T08:11:11.028Z,89.44
2019-02-12T08:12:10.946Z,89.30
2019-02-12T08:13:10.859Z,89.49
2019-02-12T08:14:10.773Z,89.39
2019-02-12T08:15:10.698Z,89.11
2019-02-12T08:16:10.609Z,89.54
2019-02-12T08:17:10.528Z,88.92
2019-02-12T08:18:10.443Z,89.01
2019-02-12T08:19:10.360Z,88.82
2019-02-12T08:20:10.279Z,89.01
2019-02-12T08:21:10.192Z,89.11
2019-02-12T08:22:10.128Z,89.49
2019-02-12T08:23:10.024Z,89.58
2019-02-12T08:24:09.938Z,89.49
2019-02-12T08:25:09.857Z,89.30
2019-02-12T08:26:09.774Z,89.30
2019-02-12T08:27:09.691Z,89.20
2019-02-12T08:28:09.604Z,88.54
2019-02-12T08:29:09.527Z,88.64
2019-02-12T08:30:09.439Z,88.82
2019-02-12T08:31:09.364Z,88.26
2019-02-12T08:32:09.277Z,88.54
2019-02-12T08:33:09.187Z,88.45
2019-02-12T08:34:09.111Z,88.26
2019-02-12T08:35:09.032Z,88.82
2019-02-12T08:36:08.939Z,88.26
2019-02-12T08:37:08.858Z,88.82
2019-02-12T08:38:08.776Z,88.92
2019-02-12T08:39:08.690Z,88.92
2019-02-12T08:40:08.605Z,88.35
2019-02-12T08:41:08.519Z,88.73
2019-02-12T08:42:08.445Z,89.20
2019-02-12T08:43:08.430Z,89.01
2019-02-12T08:44:08.273Z,88.35
2019-02-12T08:45:08.192Z,88.54
2019-02-12T08:46:08.105Z,88.64
2019-02-12T08:47:08.019Z,88.17
2019-02-12T08:48:07.939Z,88.17
2019-02-12T08:49:07.866Z,88.07
2019-02-12T08:50:07.833Z,88.07
2019-02-12T08:51:07.689Z,88.35
2019-02-12T08:52:07.603Z,87.78
2019-02-12T08:53:07.519Z,87.50
2019-02-12T08:54:07.443Z,87.88
2019-02-12T08:55:07.362Z,87.78
2019-02-12T08:56:07.271Z,87.78
2019-02-12T08:57:07.184Z,88.26
2019-02-12T08:58:07.102Z,88.54
2019-02-12T08:59:07.026Z,88.54
2019-02-12T09:00:06.938Z,88.54
2019-02-12T09:01:06.911Z,87.98
2019-02-12T09:02:06.774Z,88.07
2019-02-12T09:03:06.686Z,87.78
2019-02-12T09:04:06.607Z,87.78
2019-02-12T09:05:06.520Z,87.69
2019-02-12T09:06:06.439Z,88.45
2019-02-12T09:07:06.353Z,88.02
2019-02-12T09:08:06.270Z,87.73
2019-02-12T09:09:06.189Z,87.54
2019-02-12T09:10:06.103Z,86.50
2019-02-12T09:11:06.033Z,85.84
2019-02-12T09:12:05.945Z,85.84
2019-02-12T09:13:05.861Z,85.17
2019-02-12T09:14:05.767Z,85.27
2019-02-12T09:15:05.689Z,84.89
2019-02-12T09:16:05.695Z,84.32
2019-02-12T09:17:05.546Z,84.51
2019-02-12T09:18:05.437Z,86.03
2019-02-12T09:19:05.361Z,85.84
2019-02-12T09:20:05.274Z,84.61
2019-02-12T09:21:05.198Z,83.66
2019-02-12T09:22:05.108Z,84.23
2019-02-12T09:23:05.021Z,84.32
2019-02-12T09:24:04.938Z,84.04
2019-02-12T09:25:04.868Z,83.85
2019-02-12T09:26:04.772Z,83.28
2019-02-12T09:27:04.692Z,83.37
2019-02-12T09:28:04.613Z,83.66
2019-02-12T09:29:04.527Z,84.42
2019-02-12T09:30:04.444Z,84.23
2019-02-12T09:31:04.367Z,83.85
2019-02-12T09:32:04.282Z,83.66
2019-02-12T09:33:04.195Z,83.47
2019-02-12T09:34:04.118Z,83.47
2019-02-12T09:35:04.031Z,83.28
2019-02-12T09:36:03.962Z,83.75
2019-02-12T09:37:03.864Z,84.32
2019-02-12T09:38:03.782Z,84.42
2019-02-12T09:39:03.696Z,84.13
2019-02-12T09:40:03.615Z,84.70
2019-02-12T09:41:03.535Z,83.66
2019-02-12T09:42:03.446Z,83.66
2019-02-12T09:43:03.366Z,82.90
2019-02-12T09:44:03.295Z,82.43
2019-02-12T09:45:03.200Z,82.52
2019-02-12T09:46:03.122Z,82.71
2019-02-12T09:47:03.046Z,83.00
2019-02-12T09:48:02.952Z,83.37
2019-02-12T09:49:02.868Z,83.09
2019-02-12T09:50:02.794Z,83.09
2019-02-12T09:51:02.757Z,83.09
2019-02-12T09:52:02.620Z,82.90
2019-02-12T09:53:02.545Z,83.09
2019-02-12T09:54:08.594Z,83.00
2019-02-12T09:55:02.375Z,83.09
2019-02-12T09:56:02.288Z,83.85
2019-02-12T09:57:02.207Z,84.23
2019-02-12T09:58:02.126Z,84.23
2019-02-12T09:59:02.041Z,84.70
2019-02-12T10:00:01.956Z,84.23
2019-02-12T10:01:01.872Z,83.47
2019-02-12T10:02:01.791Z,83.18
2019-02-12T10:03:01.711Z,84.04
2019-02-12T10:04:01.633Z,83.75
2019-02-12T10:05:01.544Z,84.32
2019-02-12T10:06:01.460Z,83.85
2019-02-12T10:07:01.377Z,83.85
2019-02-12T10:08:01.313Z,83.85
2019-02-12T10:09:01.214Z,83.66
2019-02-12T10:10:01.131Z,84.32
2019-02-12T10:11:01.044Z,84.13
2019-02-12T10:12:00.962Z,84.42
2019-02-12T10:13:00.880Z,84.70
2019-02-12T10:14:00.797Z,84.80
2019-02-12T10:15:00.720Z,84.13
2019-02-12T10:16:00.630Z,84.23
2019-02-12T10:17:00.551Z,84.32
2019-02-12T10:18:00.466Z,83.75
2019-02-12T10:19:00.384Z,83.28
2019-02-12T10:20:00.334Z,83.66
2019-02-12T10:21:00.219Z,82.90
2019-02-12T10:22:00.141Z,82.90
2019-02-12T10:23:00.051Z,83.42
2019-02-12T10:23:59.980Z,83.85
2019-02-12T10:24:59.902Z,83.18
2019-02-12T10:25:59.803Z,83.37
2019-02-12T10:26:59.756Z,83.61
2019-02-12T10:27:59.637Z,83.00
2019-02-12T10:28:59.559Z,82.94
2019-02-12T10:29:59.476Z,82.14
2019-02-12T10:30:59.405Z,82.71
2019-02-12T10:32:08.216Z,82.75
2019-02-12T10:32:59.225Z,82.66
2019-02-12T10:33:59.173Z,82.75
2019-02-12T10:34:59.061Z,83.61
2019-02-12T10:35:58.981Z,83.42
2019-02-12T10:36:58.898Z,83.51
2019-02-12T10:37:58.814Z,82.47
2019-02-12T10:38:58.745Z,82.28
2019-02-12T10:39:58.656Z,83.23
2019-02-12T10:40:58.565Z,83.42
2019-02-12T10:41:58.490Z,82.94
2019-02-12T10:42:58.421Z,83.42
2019-02-12T10:43:58.319Z,84.46
2019-02-12T10:44:58.237Z,84.08
2019-02-12T10:45:58.150Z,83.51
2019-02-12T10:46:58.071Z,82.94
2019-02-12T10:47:57.992Z,82.28
2019-02-12T10:48:57.910Z,82.37
2019-02-12T10:49:57.843Z,82.66
2019-02-12T10:50:57.735Z,82.75
2019-02-12T10:51:57.657Z,83.51
2019-02-12T10:52:57.577Z,83.51
2019-02-12T10:53:57.495Z,83.32
2019-02-12T10:54:57.423Z,82.75
2019-02-12T10:55:57.321Z,82.85
2019-02-12T10:56:57.246Z,83.61
2019-02-12T10:57:57.160Z,82.75
2019-02-12T10:58:57.079Z,83.23
2019-02-12T10:59:56.996Z,82.28
2019-02-12T11:00:56.916Z,82.28
2019-02-12T11:01:56.839Z,82.75
2019-02-12T11:02:56.745Z,82.94
2019-02-12T11:03:56.669Z,82.85
2019-02-12T11:04:56.583Z,81.99
2019-02-12T11:05:56.498Z,83.04
2019-02-12T11:06:56.420Z,83.04
2019-02-12T11:07:56.335Z,83.13
2019-02-12T11:08:56.260Z,83.32
2019-02-12T11:09:56.171Z,82.75
2019-02-12T11:10:56.087Z,82.09
2019-02-12T11:11:56.013Z,82.37
2019-02-12T11:12:55.924Z,83.23
2019-02-12T11:13:55.842Z,83.23
2019-02-12T11:14:55.756Z,83.51
2019-02-12T11:15:55.683Z,83.51
2019-02-12T11:16:55.592Z,83.13
2019-02-12T11:17:55.532Z,83.61
2019-02-12T11:18:55.429Z,83.61
2019-02-12T11:19:55.351Z,82.28
2019-02-12T11:20:55.258Z,81.90
2019-02-12T11:21:55.181Z,81.52
2019-02-12T11:22:55.099Z,83.04
2019-02-12T11:23:55.022Z,83.42
2019-02-12T11:24:54.947Z,83.32
2019-02-12T11:25:54.851Z,83.13
2019-02-12T11:26:54.770Z,81.14
2019-02-12T11:27:54.696Z,81.43
2019-02-12T11:28:54.606Z,81.33
2019-02-12T11:29:54.525Z,81.62
2019-02-12T11:30:54.443Z,81.33
2019-02-12T11:31:54.377Z,81.24
2019-02-12T11:32:54.283Z,81.24
2019-02-12T11:33:54.192Z,81.24
2019-02-12T11:34:54.112Z,80.76
2019-02-12T11:35:54.026Z,80.95
2019-02-12T11:36:53.949Z,81.14
2019-02-12T11:37:53.868Z,81.14
2019-02-12T11:38:53.781Z,81.43
2019-02-12T11:39:53.702Z,81.52
2019-02-12T11:40:53.620Z,81.90
2019-02-12T11:41:53.538Z,81.05
2019-02-12T11:42:53.464Z,81.43
2019-02-12T11:43:53.367Z,82.09
2019-02-12T11:44:53.293Z,82.28
2019-02-12T11:45:53.206Z,81.81
2019-02-12T11:46:53.128Z,81.43
2019-02-12T11:47:53.041Z,81.33
2019-02-12T11:48:52.960Z,81.05
2019-02-12T11:49:52.878Z,81.90
2019-02-12T11:50:52.792Z,81.90
2019-02-12T11:51:52.718Z,81.90
2019-02-12T11:52:52.635Z,82.18
2019-02-12T11:53:52.552Z,81.33
2019-02-12T11:54:52.464Z,81.24
2019-02-12T11:55:52.382Z,80.86
2019-02-12T11:56:52.300Z,80.38
2019-02-12T11:57:52.226Z,80.57
2019-02-12T11:58:52.132Z,80.29
2019-02-12T11:59:52.443Z,80.67
2019-02-12T12:00:51.975Z,80.76
2019-02-12T12:01:51.891Z,80.38
2019-02-12T12:02:51.807Z,80.57
2019-02-12T12:03:51.735Z,81.14
2019-02-12T12:04:51.639Z,80.86
2019-02-12T12:05:51.561Z,81.33
2019-02-12T12:06:51.478Z,81.05
2019-02-12T12:07:51.396Z,80.95
2019-02-12T12:08:51.311Z,81.14
2019-02-12T12:09:51.234Z,81.90
2019-02-12T12:10:51.149Z,81.99
2019-02-12T12:11:51.066Z,81.05
2019-02-12T12:12:50.990Z,81.33
2019-02-12T12:13:50.902Z,81.14
2019-02-12T12:14:50.816Z,81.24
2019-02-12T12:15:50.739Z,81.24
2019-02-12T12:16:50.657Z,81.14
2019-02-12T12:17:50.577Z,81.05
2019-02-12T12:18:50.494Z,81.24
2019-02-12T12:19:50.412Z,81.81
2019-02-12T12:20:50.326Z,81.33
2019-02-12T12:21:50.244Z,80.29
2019-02-12T12:22:50.172Z,81.33
2019-02-12T12:23:50.081Z,81.24
2019-02-12T12:24:51.627Z,81.14
2019-02-12T12:25:49.911Z,81.14
2019-02-12T12:26:49.831Z,80.67
2019-02-12T12:27:49.747Z,80.95
2019-02-12T12:28:49.669Z,80.38
2019-02-12T12:29:49.582Z,79.63
2019-02-12T12:30:49.518Z,80.48
2019-02-12T12:31:49.421Z,80.48
2019-02-12T12:32:49.337Z,80.67
2019-02-12T12:33:49.255Z,81.52
2019-02-12T12:34:49.171Z,81.24
2019-02-12T12:35:49.093Z,81.24
2019-02-12T12:36:49.012Z,81.33
2019-02-12T12:37:48.926Z,80.67
2019-02-12T12:38:48.842Z,81.43
2019-02-12T12:39:48.767Z,81.52
2019-02-12T12:40:48.678Z,81.62
2019-02-12T12:41:48.603Z,81.81
2019-02-12T12:42:48.513Z,81.33
2019-02-12T12:43:48.431Z,81.24
2019-02-12T12:44:48.351Z,81.33
2019-02-12T12:45:48.271Z,81.14
2019-02-12T12:46:48.182Z,80.38
2019-02-12T12:47:48.103Z,80.48
2019-02-12T12:48:48.021Z,80.86
2019-02-12T12:49:47.944Z,80.76
2019-02-12T12:50:47.861Z,80.29
2019-02-12T12:51:47.775Z,80.86